createdAt,value
2022-09-28T00:00:34.268Z,100.00
2022-09-28T00:03:00.859Z,100.00
2022-09-28T00:05:27.364Z,100.00
2022-09-28T00:07:54.189Z,100.00
2022-09-28T00:10:23.033Z,100.00
2022-09-28T00:12:51.098Z,100.00
2022-09-28T00:15:18.233Z,100.00
2022-09-28T00:17:44.893Z,100.00
2022-09-28T00:20:12.627Z,100.00
2022-09-28T00:22:39.267Z,100.00
2022-09-28T00:25:07.121Z,100.00
2022-09-28T00:27:33.509Z,100.00
2022-09-28T00:30:00.107Z,100.00
2022-09-28T00:32:26.814Z,100.00
2022-09-28T00:34:53.235Z,100.00
2022-09-28T00:37:20.048Z,100.00
2022-09-28T00:39:47.888Z,100.00
2022-09-28T00:42:20.142Z,100.00
2022-09-28T00:44:48.151Z,100.00
2022-09-28T00:47:41.088Z,100.00
2022-09-28T00:50:26.118Z,100.00
2022-09-28T00:53:02.610Z,100.00
2022-09-28T00:55:40.331Z,100.00
2022-09-28T00:58:10.188Z,100.00
2022-09-28T01:00:37.006Z,100.00
2022-09-28T01:03:03.924Z,100.00
2022-09-28T01:05:30.537Z,100.00
2022-09-28T01:07:57.623Z,100.00
2022-09-28T01:10:24.233Z,100.00
2022-09-28T01:12:50.865Z,100.00
2022-09-28T01:15:17.369Z,100.00
2022-09-28T01:17:56.635Z,100.00
2022-09-28T01:20:48.443Z,100.00
2022-09-28T01:23:21.141Z,100.00
2022-09-28T01:26:09.572Z,100.00
2022-09-28T01:28:36.473Z,100.00
2022-09-28T01:31:26.816Z,100.00
2022-09-28T01:34:30.814Z,100.00
2022-09-28T01:37:01.380Z,100.00
2022-09-28T01:39:34.062Z,100.00
2022-09-28T01:42:06.155Z,100.00
2022-09-28T01:44:39.736Z,100.00
2022-09-28T01:47:10.739Z,100.00
2022-09-28T01:49:42.198Z,100.00
2022-09-28T01:52:18.967Z,100.00
2022-09-28T01:55:11.759Z,100.00
2022-09-28T01:57:48.591Z,100.00
2022-09-28T02:00:18.134Z,100.00
2022-09-28T02:02:54.591Z,100.00
2022-09-28T02:05:27.214Z,100.00
2022-09-28T02:08:05.416Z,100.00
2022-09-28T02:10:51.254Z,100.00
2022-09-28T02:13:38.131Z,100.00
2022-09-28T02:16:14.335Z,100.00
2022-09-28T02:18:41.614Z,100.00
2022-09-28T02:21:17.478Z,100.00
2022-09-28T02:24:02.129Z,100.00
2022-09-28T02:26:37.893Z,100.00
2022-09-28T02:29:04.704Z,100.00
2022-09-28T02:31:31.784Z,100.00
2022-09-28T02:33:59.106Z,100.00
2022-09-28T02:36:27.427Z,100.00
2022-09-28T02:38:55.008Z,100.00
2022-09-28T02:41:33.085Z,100.00
2022-09-28T02:44:37.476Z,100.00
2022-09-28T02:47:33.130Z,100.00
2022-09-28T02:50:22.206Z,100.00
2022-09-28T02:53:15.551Z,100.00
2022-09-28T02:56:08.408Z,100.00
2022-09-28T02:58:43.670Z,100.00
2022-09-28T03:01:25.291Z,100.00
2022-09-28T03:04:00.283Z,100.00
2022-09-28T03:07:11.869Z,100.00
2022-09-28T03:09:51.440Z,100.00
2022-09-28T03:12:20.744Z,100.00
2022-09-28T03:14:47.233Z,100.00
2022-09-28T03:17:13.599Z,100.00
2022-09-28T03:19:40.004Z,100.00
2022-09-28T03:22:07.959Z,100.00
2022-09-28T03:24:34.343Z,100.00
2022-09-28T03:27:00.719Z,100.00
2022-09-28T03:29:27.108Z,100.00
2022-09-28T03:31:53.555Z,100.00
2022-09-28T03:34:19.971Z,100.00
2022-09-28T03:36:46.368Z,100.00
2022-09-28T03:39:12.728Z,100.00
2022-09-28T03:41:39.087Z,100.00
2022-09-28T03:44:05.502Z,100.00
2022-09-28T03:46:31.938Z,100.00
2022-09-28T03:48:59.219Z,100.00
2022-09-28T03:51:26.207Z,100.00
2022-09-28T03:53:52.595Z,100.00
2022-09-28T03:56:18.969Z,100.00
2022-09-28T03:58:45.509Z,100.00
2022-09-28T04:01:17.020Z,100.00
2022-09-28T04:03:44.753Z,100.00
2022-09-28T04:06:11.903Z,100.00
2022-09-28T04:08:38.723Z,100.00
2022-09-28T04:11:05.260Z,100.00
2022-09-28T04:13:31.913Z,100.00
2022-09-28T04:16:01.462Z,100.00
2022-09-28T04:18:28.522Z,100.00
2022-09-28T04:21:08.904Z,100.00
2022-09-28T04:23:36.922Z,100.00
2022-09-28T04:26:09.203Z,100.00
2022-09-28T04:28:54.049Z,100.00
2022-09-28T04:31:23.639Z,100.00
2022-09-28T04:33:50.073Z,100.00
2022-09-28T04:36:17.540Z,100.00
2022-09-28T04:38:59.091Z,100.00
2022-09-28T04:41:26.470Z,100.00
2022-09-28T04:43:52.833Z,100.00
2022-09-28T04:46:19.838Z,100.00
2022-09-28T04:48:46.298Z,100.00
2022-09-28T04:51:12.688Z,100.00
2022-09-28T04:53:39.077Z,100.00
2022-09-28T04:56:08.291Z,100.00
2022-09-28T04:58:35.686Z,100.00
2022-09-28T05:01:06.844Z,100.00
2022-09-28T05:03:34.015Z,100.00
2022-09-28T05:06:01.470Z,100.00
2022-09-28T05:08:28.328Z,100.00
2022-09-28T05:11:03.581Z,100.00
2022-09-28T05:13:31.375Z,100.00
2022-09-28T05:16:03.001Z,100.00
2022-09-28T05:18:31.755Z,100.00
2022-09-28T05:20:58.182Z,100.00
2022-09-28T05:23:24.637Z,100.00
2022-09-28T05:25:51.017Z,100.00
2022-09-28T05:28:26.031Z,100.00
2022-09-28T05:30:52.447Z,100.00
2022-09-28T05:33:18.913Z,100.00
2022-09-28T05:35:46.472Z,100.00
2022-09-28T05:38:15.132Z,100.00
2022-09-28T05:40:41.518Z,100.00
2022-09-28T05:43:08.019Z,100.00
2022-09-28T05:45:34.459Z,100.00
2022-09-28T05:48:01.070Z,100.00
2022-09-28T05:50:27.502Z,100.00
2022-09-28T05:52:58.430Z,100.00
2022-09-28T05:55:25.118Z,100.00
2022-09-28T05:57:51.602Z,100.00
2022-09-28T06:00:18.770Z,100.00
2022-09-28T06:02:45.317Z,100.00
2022-09-28T06:05:11.738Z,100.00
2022-09-28T06:07:38.105Z,100.00
2022-09-28T06:10:04.901Z,100.00
2022-09-28T06:12:33.764Z,100.00
2022-09-28T06:15:01.156Z,100.00
2022-09-28T06:17:27.520Z,100.00
2022-09-28T06:19:53.911Z,100.00
2022-09-28T06:22:20.280Z,100.00
2022-09-28T06:24:46.665Z,100.00
2022-09-28T06:27:13.030Z,100.00
2022-09-28T06:29:39.373Z,100.00
2022-09-28T06:32:07.297Z,100.00
2022-09-28T06:34:34.862Z,100.00
2022-09-28T06:37:03.914Z,100.00
2022-09-28T06:39:30.663Z,100.00
2022-09-28T06:41:57.027Z,100.00
2022-09-28T06:44:25.063Z,100.00
2022-09-28T06:46:52.068Z,100.00
2022-09-28T06:49:19.595Z,100.00
2022-09-28T06:51:46.136Z,100.00
2022-09-28T06:54:12.525Z,100.00
2022-09-28T06:56:38.954Z,100.00
2022-09-28T06:59:05.356Z,100.00
2022-09-28T07:01:31.801Z,100.00
2022-09-28T07:03:58.247Z,100.00
2022-09-28T07:06:26.623Z,100.00
2022-09-28T07:09:07.362Z,100.00
2022-09-28T07:11:42.003Z,100.00
2022-09-28T07:14:12.294Z,100.00
2022-09-28T07:17:09.410Z,100.00
2022-09-28T07:19:28.623Z,100.00
2022-09-28T07:22:04.270Z,100.00
2022-09-28T07:24:31.701Z,100.00
2022-09-28T07:26:58.080Z,100.00
2022-09-28T07:29:24.672Z,100.00
2022-09-28T07:31:53.530Z,100.00
2022-09-28T07:34:23.456Z,100.00
2022-09-28T07:36:49.856Z,100.00
2022-09-28T07:39:16.208Z,100.00
2022-09-28T07:41:43.866Z,100.00
2022-09-28T07:44:10.232Z,100.00
2022-09-28T07:46:37.166Z,100.00
2022-09-28T07:49:09.820Z,100.00
2022-09-28T07:51:38.679Z,100.00
2022-09-28T07:54:06.465Z,100.00
2022-09-28T07:56:34.842Z,100.00
2022-09-28T07:59:01.366Z,100.00
2022-09-28T08:01:27.978Z,100.00
2022-09-28T08:03:56.207Z,100.00
2022-09-28T08:06:23.221Z,100.00
2022-09-28T08:08:50.196Z,100.00
2022-09-28T08:11:17.797Z,100.00
2022-09-28T08:13:45.675Z,100.00
2022-09-28T08:16:12.427Z,100.00
2022-09-28T08:18:38.861Z,100.00
2022-09-28T08:21:25.039Z,100.00
2022-09-28T08:23:52.850Z,100.00
2022-09-28T08:26:19.491Z,100.00
2022-09-28T08:28:47.615Z,100.00
2022-09-28T08:31:14.179Z,100.00
2022-09-28T08:33:42.108Z,100.00
2022-09-28T08:36:10.243Z,100.00
2022-09-28T08:38:36.613Z,100.00
2022-09-28T08:41:21.734Z,100.00
2022-09-28T08:43:57.193Z,100.00
2022-09-28T08:46:29.199Z,100.00
2022-09-28T08:49:30.807Z,100.00
2022-09-28T08:52:09.426Z,100.00
2022-09-28T08:54:56.082Z,100.00
2022-09-28T08:57:54.146Z,100.00
2022-09-28T09:00:30.002Z,100.00
2022-09-28T09:02:56.469Z,100.00
2022-09-28T09:05:35.890Z,100.00
2022-09-28T09:08:21.488Z,100.00
2022-09-28T09:11:18.664Z,100.00
2022-09-28T09:13:49.452Z,100.00
2022-09-28T09:16:37.618Z,100.00
2022-09-28T09:19:03.923Z,100.00
2022-09-28T09:21:41.638Z,100.00
2022-09-28T09:24:21.422Z,100.00
2022-09-28T09:26:54.800Z,100.00
2022-09-28T09:29:33.138Z,100.00
2022-09-28T09:32:16.585Z,100.00
2022-09-28T09:34:52.466Z,100.00
2022-09-28T09:37:35.367Z,100.00
2022-09-28T09:40:20.667Z,100.00
2022-09-28T09:43:14.196Z,100.00
2022-09-28T09:45:56.424Z,100.00
2022-09-28T09:48:38.598Z,100.00
2022-09-28T09:51:15.994Z,100.00
2022-09-28T09:53:50.963Z,100.00
2022-09-28T09:56:39.545Z,100.00
2022-09-28T09:59:11.805Z,100.00
2022-09-28T10:01:40.244Z,100.00
2022-09-28T10:04:16.951Z,100.00
2022-09-28T10:06:43.630Z,100.00
2022-09-28T10:09:14.844Z,100.00
2022-09-28T10:11:47.628Z,100.00
2022-09-28T10:14:17.737Z,100.00
2022-09-28T10:16:47.522Z,100.00
2022-09-28T10:19:17.286Z,100.00
2022-09-28T10:21:46.760Z,100.00
2022-09-28T10:24:31.681Z,100.00
2022-09-28T10:27:05.511Z,100.00
2022-09-28T10:29:43.067Z,100.00
2022-09-28T10:32:28.280Z,100.00
2022-09-28T10:35:20.523Z,100.00
2022-09-28T10:37:59.218Z,100.00
2022-09-28T10:40:39.978Z,100.00
2022-09-28T10:43:18.297Z,100.00
2022-09-28T10:45:44.971Z,100.00
2022-09-28T10:48:22.244Z,100.00
2022-09-28T10:51:05.452Z,100.00
2022-09-28T10:53:32.183Z,100.00
2022-09-28T10:56:02.770Z,100.00
2022-09-28T10:58:47.408Z,100.00
2022-09-28T11:01:18.987Z,100.00
2022-09-28T11:04:01.579Z,100.00
2022-09-28T11:06:39.070Z,100.00
2022-09-28T11:09:19.969Z,100.00
2022-09-28T11:11:47.207Z,100.00
2022-09-28T11:14:30.066Z,100.00
2022-09-28T11:17:24.112Z,100.00
2022-09-28T11:19:50.732Z,100.00
2022-09-28T11:22:41.668Z,100.00
2022-09-28T11:25:22.202Z,100.00
2022-09-28T11:27:51.293Z,100.00
2022-09-28T11:30:48.443Z,100.00
2022-09-28T11:33:21.852Z,100.00
2022-09-28T11:36:10.730Z,100.00
2022-09-28T11:38:47.393Z,100.00
2022-09-28T11:41:29.289Z,100.00
2022-09-28T11:44:19.483Z,100.00
2022-09-28T11:47:06.533Z,100.00
2022-09-28T11:49:41.239Z,100.00
2022-09-28T11:52:17.890Z,100.00
2022-09-28T11:54:55.349Z,100.00
2022-09-28T11:57:27.455Z,100.00
2022-09-28T12:00:01.671Z,100.00
2022-09-28T12:02:39.551Z,100.00
2022-09-28T12:05:36.749Z,99.89
2022-09-28T12:08:19.647Z,99.53
2022-09-28T12:11:02.329Z,100.00
2022-09-28T12:13:44.300Z,100.00
2022-09-28T12:16:53.442Z,98.88
2022-09-28T12:19:23.445Z,98.03
2022-09-28T12:21:53.845Z,98.78
2022-09-28T12:24:45.666Z,93.12
2022-09-28T12:27:21.188Z,96.78
2022-09-28T12:30:02.095Z,96.79
2022-09-28T12:32:38.380Z,96.23
2022-09-28T12:35:30.709Z,94.53
2022-09-28T12:38:12.636Z,94.65
2022-09-28T12:40:57.582Z,94.89
2022-09-28T12:43:33.393Z,96.77
2022-09-28T12:46:21.396Z,96.03
2022-09-28T12:49:24.084Z,98.07
2022-09-28T12:51:49.189Z,99.39
2022-09-28T12:54:50.615Z,94.10
2022-09-28T12:57:34.697Z,94.19
2022-09-28T13:00:08.376Z,96.97
2022-09-28T13:03:19.437Z,94.73
2022-09-28T13:06:19.261Z,90.99
2022-09-28T13:09:03.949Z,95.87
2022-09-28T13:11:43.119Z,94.76
2022-09-28T13:14:15.630Z,95.26
2022-09-28T13:17:01.878Z,94.84
2022-09-28T13:19:50.067Z,94.64
2022-09-28T13:22:50.803Z,94.08
2022-09-28T13:25:20.351Z,96.10
2022-09-28T13:27:53.474Z,95.77
2022-09-28T13:30:20.073Z,96.62
2022-09-28T13:32:47.935Z,95.62
2022-09-28T13:35:19.303Z,94.92
2022-09-28T13:37:46.016Z,95.11
2022-09-28T13:40:12.513Z,95.13
2022-09-28T13:42:44.858Z,92.63
2022-09-28T13:45:23.075Z,92.43
2022-09-28T13:48:37.848Z,93.00
2022-09-28T13:51:45.759Z,100.00
2022-09-28T13:54:15.706Z,100.00
2022-09-28T13:57:00.708Z,100.00
2022-09-28T13:59:30.249Z,100.00
2022-09-28T14:01:57.324Z,100.00
2022-09-28T14:04:47.445Z,100.00
2022-09-28T14:07:24.030Z,100.00
2022-09-28T14:10:38.923Z,100.00
2022-09-28T14:13:08.739Z,100.00
2022-09-28T14:15:35.111Z,100.00
2022-09-28T14:18:10.321Z,100.00
2022-09-28T14:20:36.934Z,100.00
2022-09-28T14:23:23.033Z,100.00
2022-09-28T14:26:14.752Z,100.00
2022-09-28T14:28:53.668Z,100.00
2022-09-28T14:31:26.959Z,100.00
2022-09-28T14:33:59.211Z,100.00
2022-09-28T14:37:00.208Z,100.00
2022-09-28T14:39:49.718Z,100.00
2022-09-28T14:42:23.196Z,100.00
2022-09-28T14:45:06.937Z,100.00
2022-09-28T14:47:35.331Z,100.00
2022-09-28T14:50:26.245Z,100.00
2022-09-28T14:53:13.672Z,100.00
2022-09-28T14:55:50.523Z,100.00
2022-09-28T14:58:23.892Z,100.00
2022-09-28T15:00:56.224Z,100.00
2022-09-28T15:03:24.221Z,100.00
2022-09-28T15:05:50.813Z,100.00
2022-09-28T15:08:20.945Z,100.00
2022-09-28T15:10:51.267Z,100.00
2022-09-28T15:13:27.748Z,96.95
2022-09-28T15:16:15.425Z,94.98
2022-09-28T15:19:09.194Z,95.91
2022-09-28T15:21:38.958Z,99.51
2022-09-28T15:24:33.959Z,96.22
2022-09-28T15:27:01.869Z,99.33
2022-09-28T15:29:31.297Z,99.93
2022-09-28T15:31:58.773Z,100.00
2022-09-28T15:34:52.430Z,98.26
2022-09-28T15:37:22.964Z,100.00
2022-09-28T15:39:51.418Z,100.00
2022-09-28T15:42:18.427Z,97.25
2022-09-28T15:45:26.442Z,95.51
2022-09-28T15:48:17.561Z,94.53
2022-09-28T15:50:58.145Z,92.29
2022-09-28T15:53:24.787Z,96.17
2022-09-28T15:55:51.395Z,98.70
2022-09-28T15:58:22.669Z,98.56
2022-09-28T16:00:51.663Z,95.80
2022-09-28T16:03:28.958Z,89.27
2022-09-28T16:05:58.449Z,90.28
2022-09-28T16:08:32.896Z,88.15
2022-09-28T16:11:24.287Z,90.88
2022-09-28T16:14:06.311Z,93.12
2022-09-28T16:16:46.554Z,84.80
2022-09-28T16:19:25.743Z,85.65
2022-09-28T16:21:55.835Z,94.76
2022-09-28T16:24:30.481Z,98.60
2022-09-28T16:27:42.708Z,100.00
2022-09-28T16:30:21.881Z,100.00
2022-09-28T16:32:51.685Z,100.00
2022-09-28T16:35:22.023Z,100.00
2022-09-28T16:37:56.894Z,100.00
2022-09-28T16:40:23.553Z,100.00
2022-09-28T16:42:51.733Z,100.00
2022-09-28T16:45:20.375Z,100.00
2022-09-28T16:47:49.223Z,100.00
2022-09-28T16:50:16.867Z,100.00
2022-09-28T16:53:01.939Z,100.00
2022-09-28T16:55:39.929Z,100.00
2022-09-28T16:58:07.291Z,100.00
2022-09-28T17:00:33.676Z,100.00
2022-09-28T17:03:00.183Z,100.00
2022-09-28T17:05:26.603Z,100.00
2022-09-28T17:08:00.748Z,100.00
2022-09-28T17:10:45.047Z,100.00
2022-09-28T17:13:29.942Z,100.00
2022-09-28T17:15:56.342Z,100.00
2022-09-28T17:18:22.971Z,100.00
2022-09-28T17:20:51.759Z,100.00
2022-09-28T17:25:49.717Z,100.00
2022-09-28T17:28:35.272Z,100.00
2022-09-28T17:31:02.846Z,100.00
2022-09-28T17:33:29.754Z,100.00
2022-09-28T17:36:01.287Z,100.00
2022-09-28T17:38:28.176Z,100.00
2022-09-28T17:40:54.697Z,100.00
2022-09-28T17:43:22.162Z,100.00
2022-09-28T17:45:49.450Z,100.00
2022-09-28T17:48:23.333Z,100.00
2022-09-28T17:50:50.631Z,100.00
2022-09-28T17:53:17.122Z,100.00
2022-09-28T17:55:43.804Z,100.00
2022-09-28T17:58:21.648Z,100.00
2022-09-28T18:00:50.648Z,100.00
2022-09-28T18:03:22.226Z,100.00
2022-09-28T18:05:53.580Z,100.00
2022-09-28T18:08:21.157Z,100.00
2022-09-28T18:10:47.894Z,100.00
2022-09-28T18:13:14.932Z,100.00
2022-09-28T18:15:41.713Z,100.00
2022-09-28T18:18:09.593Z,100.00
2022-09-28T18:20:36.791Z,100.00
2022-09-28T18:23:03.816Z,100.00
2022-09-28T18:25:30.208Z,100.00
2022-09-28T18:27:57.515Z,100.00
2022-09-28T18:30:24.800Z,100.00
2022-09-28T18:32:51.525Z,100.00
2022-09-28T18:35:22.768Z,100.00
2022-09-28T18:37:49.945Z,100.00
2022-09-28T18:40:16.399Z,100.00
2022-09-28T18:42:42.915Z,100.00
2022-09-28T18:45:14.193Z,100.00
2022-09-28T18:47:40.612Z,100.00
2022-09-28T18:50:07.570Z,100.00
2022-09-28T18:52:38.559Z,100.00
2022-09-28T18:55:06.532Z,100.00
2022-09-28T18:57:33.574Z,100.00
2022-09-28T19:00:01.232Z,100.00
2022-09-28T19:02:27.758Z,100.00
2022-09-28T19:04:54.230Z,100.00
2022-09-28T19:07:21.191Z,100.00
2022-09-28T19:09:47.662Z,100.00
2022-09-28T19:12:14.632Z,100.00
2022-09-28T19:14:41.050Z,100.00
2022-09-28T19:17:07.627Z,100.00
2022-09-28T19:19:34.036Z,100.00
2022-09-28T19:22:00.481Z,100.00
2022-09-28T19:24:27.037Z,100.00
2022-09-28T19:26:53.552Z,100.00
2022-09-28T19:29:20.359Z,100.00
2022-09-28T19:31:47.205Z,100.00
2022-09-28T19:34:14.447Z,100.00
2022-09-28T19:36:41.729Z,100.00
2022-09-28T19:39:08.121Z,100.00
2022-09-28T19:41:43.502Z,100.00
2022-09-28T19:44:15.572Z,100.00
2022-09-28T19:46:42.533Z,100.00
2022-09-28T19:49:13.913Z,100.00
2022-09-28T19:52:01.599Z,100.00
2022-09-28T19:54:35.531Z,100.00
2022-09-28T19:57:07.588Z,100.00
2022-09-28T19:59:35.676Z,100.00
2022-09-28T20:02:03.087Z,100.00
2022-09-28T20:04:29.957Z,100.00
2022-09-28T20:06:56.413Z,100.00
2022-09-28T20:09:22.911Z,100.00
2022-09-28T20:11:51.712Z,100.00
2022-09-28T20:14:18.673Z,100.00
2022-09-28T20:16:46.247Z,100.00
2022-09-28T20:19:12.927Z,100.00
2022-09-28T20:21:39.381Z,100.00
2022-09-28T20:24:06.227Z,100.00
2022-09-28T20:26:37.703Z,100.00
2022-09-28T20:29:05.774Z,100.00
2022-09-28T20:31:32.382Z,100.00
2022-09-28T20:33:58.846Z,100.00
2022-09-28T20:36:25.870Z,100.00
2022-09-28T20:38:54.048Z,100.00
2022-09-28T20:41:23.042Z,100.00
2022-09-28T20:43:55.849Z,100.00
2022-09-28T20:46:22.933Z,100.00
2022-09-28T20:48:50.233Z,100.00
2022-09-28T20:51:19.809Z,100.00
2022-09-28T20:53:52.078Z,100.00
2022-09-28T20:56:25.550Z,100.00
2022-09-28T20:58:52.865Z,100.00
2022-09-28T21:01:27.140Z,100.00
2022-09-28T21:03:59.214Z,100.00
2022-09-28T21:06:28.443Z,100.00
2022-09-28T21:08:55.391Z,100.00
2022-09-28T21:11:23.668Z,100.00
2022-09-28T21:13:55.111Z,100.00
2022-09-28T21:16:21.559Z,100.00
2022-09-28T21:18:48.409Z,100.00
2022-09-28T21:21:17.120Z,100.00
2022-09-28T21:23:44.897Z,100.00
2022-09-28T21:26:24.833Z,100.00
2022-09-28T21:28:56.664Z,100.00
2022-09-28T21:31:28.838Z,100.00
2022-09-28T21:33:56.590Z,100.00
2022-09-28T21:36:22.987Z,100.00
2022-09-28T21:38:49.420Z,100.00
2022-09-28T21:41:16.327Z,100.00
2022-09-28T21:43:42.709Z,100.00
2022-09-28T21:46:10.187Z,100.00
2022-09-28T21:48:36.653Z,100.00
2022-09-28T21:51:06.144Z,100.00
2022-09-28T21:53:37.341Z,100.00
2022-09-28T21:56:06.001Z,100.00
2022-09-28T21:58:34.561Z,100.00
2022-09-28T22:01:16.706Z,100.00
2022-09-28T22:03:44.933Z,100.00
2022-09-28T22:06:11.616Z,100.00
2022-09-28T22:08:38.751Z,100.00
2022-09-28T22:11:17.197Z,100.00
2022-09-28T22:13:49.129Z,100.00
2022-09-28T22:16:18.504Z,100.00
2022-09-28T22:18:45.339Z,100.00
2022-09-28T22:21:18.864Z,100.00
2022-09-28T22:23:45.496Z,100.00
2022-09-28T22:26:20.837Z,100.00
2022-09-28T22:29:04.992Z,100.00
2022-09-28T22:31:40.981Z,100.00
2022-09-28T22:34:08.285Z,100.00
2022-09-28T22:36:34.849Z,100.00
2022-09-28T22:39:01.384Z,100.00
2022-09-28T22:41:28.266Z,100.00
2022-09-28T22:43:55.149Z,100.00
2022-09-28T22:46:24.282Z,100.00
2022-09-28T22:48:53.660Z,100.00
2022-09-28T22:51:21.027Z,100.00
2022-09-28T22:53:48.024Z,100.00
2022-09-28T22:56:18.663Z,100.00
2022-09-28T22:58:45.521Z,100.00
2022-09-28T23:01:14.801Z,100.00
2022-09-28T23:03:42.485Z,100.00
2022-09-28T23:06:10.819Z,100.00
2022-09-28T23:08:38.163Z,100.00
2022-09-28T23:11:05.278Z,100.00
2022-09-28T23:13:32.054Z,100.00
2022-09-28T23:16:01.267Z,100.00
2022-09-28T23:18:31.904Z,100.00
2022-09-28T23:21:04.648Z,100.00
2022-09-28T23:23:31.686Z,100.00
2022-09-28T23:25:58.417Z,100.00
2022-09-28T23:28:26.078Z,100.00
2022-09-28T23:30:52.501Z,100.00
2022-09-28T23:33:20.414Z,100.00
2022-09-28T23:35:47.105Z,100.00
2022-09-28T23:38:16.471Z,100.00
2022-09-28T23:40:43.386Z,100.00
2022-09-28T23:43:09.775Z,100.00
2022-09-28T23:45:36.170Z,100.00
2022-09-28T23:48:02.637Z,100.00
2022-09-28T23:50:29.385Z,100.00
2022-09-28T23:52:55.883Z,100.00
2022-09-28T23:55:22.296Z,100.00
2022-09-28T23:57:48.685Z,100.00
